Walnut Creek, CA (94598)

9:39 AM PST on December 05, 2016 (GMT -0800)
APRSWXNET | | Change Station

Elev 226 ft 37.93 °N, 122.00 °W | Updated 146 days ago

Cloudy
Cloudy
53 °F
Feels Like 53 °F
N
4
Wind Variable Wind from North
Gusts mph

Today
High -- | Low -- °F
--% Chance of Precip.
Yesterday
High -- | Low -- °F
Precip. -- in
Pressure 30.13 in
Visibility 4.0 miles
Clouds Overcast 1200 ft
Dew Point 43 °F
Humidity 70%
Rainfall in
Snow Depth Not available.
7:09 AM 4:48 PM
Waxing Crescent, 33% visible
SPECI KCCR 051716Z 08005KT 4SM HZ OVC012 09/05 A3013 RMK AO2 T00890050
Pressure 30.13 in
Visibility 4.0 miles
Clouds Overcast 1200 ft
Dew Point 43 °F
Humidity 70%
Rainfall in
Snow Depth Not available.
7:09 AM 4:48 PM
Waxing Crescent, 33% visible
SPECI KCCR 051716Z 08005KT 4SM HZ OVC012 09/05 A3013 RMK AO2 T00890050

10-Day Weather Forecast

Almanac

Astronomy

Dec. 05, 2016 Rise Set
Actual Time
Civil Twilight
Nautical Twilight
Astronomical Twilight
Moon
Length of Visible Light
Length of Day
Tomorrow will be .
, % of the Moon is Illuminated

Today's Extremes

State Highs State Lows

Community

WunderPhotos

Upload Photos

1,955,844 photos uploaded!

WunderBlog® & News

Nearby

Air Quality

  Air Quality AQ Index Pollutant
Not available.

Snow Depth

Station Depth Elevation

Earthquake Activity

City Distance Mag. Time & Date
Minimum magnitude displayed is 2.5.

Coastal Water Temperatures

Place Temperature

Stations

Nearby Weather Stations

Station Location Temp. Windchill Dew Point Humidity Wind Precip. Elev Updated Type
                   

Watches & Warnings

There are currently no watches in effect.